Time;durP1;ratioP1;P1;durP2;ratioP2;P2;SDS_P1;SDS_P2;PMS_P1;PMS_P2;Temp;Humidity;BMP_temperature;BMP_pressure;BME280_temperature;BME280_humidity;BME280_pressure;Samples;Min_cycle;Max_cycle;Signal;HPM_P1;HPM_P2
2023/11/30 00:01:23;;;;;;;15.93;13.47;;;;;;;;;;4935502;28;20233;-84
2023/11/30 00:03:48;;;;;;;13.67;12.37;;;;;;;;;;4916897;29;20227;-82
2023/11/30 00:06:14;;;;;;;14.30;12.80;;;;;;;;;;4921762;29;20696;-84
2023/11/30 00:08:39;;;;;;;15.00;13.40;;;;;;;;;;4935471;29;20220;-81
2023/11/30 00:11:08;;;;;;;14.70;13.20;;;;;;;;;;4915442;29;20242;-85
2023/11/30 00:13:33;;;;;;;15.20;13.63;;;;;;;;;;4937152;29;20219;-85
2023/11/30 00:16:02;;;;;;;18.53;14.07;;;;;;;;;;4953382;28;20226;-81
2023/11/30 00:18:33;;;;;;;14.80;13.20;;;;;;;;;;4918481;28;21241;-83
2023/11/30 00:21:01;;;;;;;15.80;14.03;;;;;;;;;;4921251;29;20233;-82
2023/11/30 00:23:26;;;;;;;31.70;13.60;;;;;;;;;;4937456;28;20219;-84
2023/11/30 00:25:52;;;;;;;13.93;12.60;;;;;;;;;;4912784;29;20259;-83
2023/11/30 00:28:20;;;;;;;16.20;13.63;;;;;;;;;;4937585;29;20277;-84
2023/11/30 00:30:48;;;;;;;14.30;12.73;;;;;;;;;;4919702;29;20227;-84
2023/11/30 00:33:17;;;;;;;13.60;12.20;;;;;;;;;;4933283;29;20305;-82
2023/11/30 00:35:43;;;;;;;13.43;12.03;;;;;;;;;;4934006;29;20242;-84
2023/11/30 00:38:09;;;;;;;14.43;12.93;;;;;;;;;;4937918;28;20226;-85
2023/11/30 00:40:37;;;;;;;13.47;12.13;;;;;;;;;;4934566;29;20239;-83
2023/11/30 00:43:06;;;;;;;13.10;11.80;;;;;;;;;;4950934;28;20235;-83
2023/11/30 00:45:34;;;;;;;14.00;12.60;;;;;;;;;;4927994;29;20231;-83
2023/11/30 00:47:59;;;;;;;14.07;12.10;;;;;;;;;;4925946;29;20223;-83
2023/11/30 00:50:27;;;;;;;13.57;12.13;;;;;;;;;;4932725;29;20267;-83
2023/11/30 00:52:55;;;;;;;13.73;12.20;;;;;;;;;;4899731;29;20233;-83
2023/11/30 00:55:27;;;;;;;13.43;11.90;;;;;;;;;;4905473;29;20237;-81
2023/11/30 00:57:55;;;;;;;14.17;12.13;;;;;;;;;;4919269;29;20289;-81
2023/11/30 01:00:25;;;;;;;12.77;11.50;;;;;;;;;;4913920;28;20618;-82
2023/11/30 01:02:50;;;;;;;13.10;11.80;;;;;;;;;;4929276;29;20219;-84
2023/11/30 01:05:16;;;;;;;12.97;11.67;;;;;;;;;;4918620;28;20238;-83
2023/11/30 01:07:41;;;;;;;13.27;11.97;;;;;;;;;;4934548;28;20227;-82
2023/11/30 01:10:09;;;;;;;13.87;12.50;;;;;;;;;;4935479;28;20299;-83
2023/11/30 01:12:34;;;;;;;12.67;11.30;;;;;;;;;;4920932;29;20380;-83
2023/11/30 01:15:03;;;;;;;12.93;11.67;;;;;;;;;;4931729;29;20282;-83
2023/11/30 01:17:29;;;;;;;12.00;10.90;;;;;;;;;;4949706;29;20226;-83
2023/11/30 01:19:54;;;;;;;11.57;10.37;;;;;;;;;;4903517;29;20220;-84
2023/11/30 01:22:22;;;;;;;12.27;11.07;;;;;;;;;;4947745;28;20233;-83
2023/11/30 01:24:50;;;;;;;12.47;11.23;;;;;;;;;;4917758;29;20282;-83
2023/11/30 01:27:18;;;;;;;12.93;11.50;;;;;;;;;;4930758;29;20219;-85
2023/11/30 01:29:44;;;;;;;12.23;11.00;;;;;;;;;;4948419;29;20215;-84
2023/11/30 01:32:09;;;;;;;14.63;10.73;;;;;;;;;;4936609;28;20658;-82
2023/11/30 01:34:39;;;;;;;13.60;11.87;;;;;;;;;;4915750;28;20214;-84
2023/11/30 01:37:10;;;;;;;12.23;11.03;;;;;;;;;;4932226;28;20228;-84
2023/11/30 01:39:39;;;;;;;12.13;10.87;;;;;;;;;;4953851;29;20305;-83
2023/11/30 01:42:12;;;;;;;12.17;10.83;;;;;;;;;;4931238;28;20346;-81
2023/11/30 01:44:39;;;;;;;11.70;10.60;;;;;;;;;;4947827;29;20231;-84
2023/11/30 01:47:10;;;;;;;12.07;10.87;;;;;;;;;;4931360;28;20230;-84
2023/11/30 01:49:38;;;;;;;10.73;9.67;;;;;;;;;;4916387;29;20223;-83
2023/11/30 01:52:06;;;;;;;11.43;10.33;;;;;;;;;;4921351;28;20262;-83
2023/11/30 01:54:39;;;;;;;11.83;10.57;;;;;;;;;;4925295;29;20226;-84
2023/11/30 01:57:07;;;;;;;12.50;10.90;;;;;;;;;;4924494;28;20215;-82
2023/11/30 01:59:35;;;;;;;12.53;10.37;;;;;;;;;;4926488;29;20219;-84
2023/11/30 02:02:03;;;;;;;11.57;10.50;;;;;;;;;;4923467;28;20255;-83
2023/11/30 02:04:34;;;;;;;11.77;10.57;;;;;;;;;;4924822;29;20233;-83
2023/11/30 02:06:59;;;;;;;11.47;10.37;;;;;;;;;;4937551;29;20215;-83
2023/11/30 02:09:25;;;;;;;11.07;10.03;;;;;;;;;;4921673;28;20241;-83
2023/11/30 02:11:50;;;;;;;11.33;10.13;;;;;;;;;;4921498;29;20603;-83
2023/11/30 02:14:19;;;;;;;11.20;10.07;;;;;;;;;;4930355;28;20623;-83
2023/11/30 02:16:49;;;;;;;11.53;10.43;;;;;;;;;;4933494;29;20279;-83
2023/11/30 02:19:14;;;;;;;10.37;9.37;;;;;;;;;;4917998;29;20318;-83
2023/11/30 02:21:49;;;;;;;12.53;10.83;;;;;;;;;;4933988;29;20224;-85
2023/11/30 02:24:17;;;;;;;10.90;9.80;;;;;;;;;;4933741;28;20259;-83
2023/11/30 02:26:45;;;;;;;11.63;10.53;;;;;;;;;;4920790;29;20226;-83
2023/11/30 02:29:15;;;;;;;10.30;9.40;;;;;;;;;;4905200;29;20207;-83
2023/11/30 02:31:41;;;;;;;11.63;9.97;;;;;;;;;;4936025;29;20712;-82
2023/11/30 02:34:12;;;;;;;11.07;10.07;;;;;;;;;;4924753;28;20305;-84
2023/11/30 02:36:39;;;;;;;10.33;9.30;;;;;;;;;;4920337;29;20307;-83
2023/11/30 02:39:09;;;;;;;13.57;11.20;;;;;;;;;;4923453;28;20305;-85
2023/11/30 02:41:35;;;;;;;10.73;9.63;;;;;;;;;;4937612;28;20215;-81
2023/11/30 02:44:00;;;;;;;11.87;10.67;;;;;;;;;;4925129;29;20222;-84
2023/11/30 02:46:29;;;;;;;11.63;10.53;;;;;;;;;;4927439;28;20231;-84
2023/11/30 02:48:54;;;;;;;11.23;10.13;;;;;;;;;;4916078;29;20319;-85
2023/11/30 02:51:22;;;;;;;11.30;10.20;;;;;;;;;;4923704;28;20226;-84
2023/11/30 02:53:50;;;;;;;11.60;10.43;;;;;;;;;;4904802;29;20234;-85
2023/11/30 02:56:21;;;;;;;12.07;10.87;;;;;;;;;;4926728;28;20326;-85
2023/11/30 02:58:51;;;;;;;11.30;10.30;;;;;;;;;;4937935;29;20234;-84
2023/11/30 03:01:19;;;;;;;12.13;11.07;;;;;;;;;;4920533;28;20226;-85
2023/11/30 03:03:47;;;;;;;11.40;10.30;;;;;;;;;;4934386;29;20764;-83
2023/11/30 03:06:14;;;;;;;10.40;9.37;;;;;;;;;;4950292;28;20233;-85
2023/11/30 03:08:40;;;;;;;10.80;9.83;;;;;;;;;;4945641;29;20243;-83
2023/11/30 03:11:05;;;;;;;11.30;10.27;;;;;;;;;;4922857;28;20231;-84
2023/11/30 03:13:31;;;;;;;10.60;9.50;;;;;;;;;;4918722;29;20219;-83
2023/11/30 03:15:57;;;;;;;13.73;10.67;;;;;;;;;;4953220;28;20261;-82
2023/11/30 03:18:22;;;;;;;11.37;10.13;;;;;;;;;;4921451;29;20235;-83
2023/11/30 03:20:48;;;;;;;11.53;10.33;;;;;;;;;;4923960;29;20767;-83
2023/11/30 03:23:13;;;;;;;11.03;10.03;;;;;;;;;;4908448;28;20233;-83
2023/11/30 03:25:43;;;;;;;11.50;10.40;;;;;;;;;;4937540;29;20227;-83
2023/11/30 03:28:09;;;;;;;12.53;11.27;;;;;;;;;;4915822;28;20608;-83
2023/11/30 03:30:38;;;;;;;11.53;10.43;;;;;;;;;;4924641;29;20229;-83
2023/11/30 03:33:07;;;;;;;11.53;9.70;;;;;;;;;;4928502;28;20594;-83
2023/11/30 03:35:35;;;;;;;10.60;9.60;;;;;;;;;;4921329;29;20227;-82
2023/11/30 03:38:03;;;;;;;11.73;10.63;;;;;;;;;;4953303;28;20293;-82
2023/11/30 03:40:33;;;;;;;12.23;10.97;;;;;;;;;;4914579;29;20619;-83
2023/11/30 03:43:01;;;;;;;11.03;10.07;;;;;;;;;;4920114;29;20254;-83
2023/11/30 03:45:31;;;;;;;11.63;10.53;;;;;;;;;;4923442;29;20223;-83
2023/11/30 03:47:57;;;;;;;11.63;10.53;;;;;;;;;;4923955;29;20222;-83
2023/11/30 03:50:25;;;;;;;11.90;10.70;;;;;;;;;;4921946;28;20230;-83
2023/11/30 03:52:53;;;;;;;12.23;10.93;;;;;;;;;;4914847;29;20251;-83
2023/11/30 03:55:19;;;;;;;11.53;10.33;;;;;;;;;;4919329;28;20219;-83
2023/11/30 03:57:46;;;;;;;13.13;11.20;;;;;;;;;;4922972;28;20281;-83
2023/11/30 04:04:03;;;;;;;11.60;10.27;;;;;;;;;;4955629;28;20233;-83
2023/11/30 04:06:29;;;;;;;12.90;10.90;;;;;;;;;;4905338;29;20223;-83
2023/11/30 04:08:54;;;;;;;11.77;10.67;;;;;;;;;;4936815;29;20218;-83
2023/11/30 04:11:22;;;;;;;11.73;10.63;;;;;;;;;;4929495;29;20224;-83
2023/11/30 04:13:48;;;;;;;14.87;11.53;;;;;;;;;;4935641;29;20228;-83
2023/11/30 04:16:17;;;;;;;19.13;11.67;;;;;;;;;;4922179;28;20230;-83
2023/11/30 04:18:45;;;;;;;15.50;13.07;;;;;;;;;;4932760;29;20231;-83
2023/11/30 04:21:13;;;;;;;17.07;13.20;;;;;;;;;;4924358;28;20214;-83
2023/11/30 04:23:41;;;;;;;16.23;13.13;;;;;;;;;;4930752;29;20832;-82
2023/11/30 04:26:07;;;;;;;21.10;14.27;;;;;;;;;;4938440;28;20328;-82
2023/11/30 04:28:37;;;;;;;20.03;14.93;;;;;;;;;;4922868;29;20222;-83
2023/11/30 04:31:04;;;;;;;15.23;13.67;;;;;;;;;;4938817;28;20214;-82
2023/11/30 04:33:29;;;;;;;17.83;14.73;;;;;;;;;;4919994;29;20289;-83
2023/11/30 04:35:55;;;;;;;18.90;14.43;;;;;;;;;;4920475;29;20230;-83
2023/11/30 04:38:21;;;;;;;24.13;15.77;;;;;;;;;;4937096;28;20222;-83
2023/11/30 04:40:47;;;;;;;21.27;15.63;;;;;;;;;;4933329;29;20211;-83
2023/11/30 04:43:12;;;;;;;16.37;13.83;;;;;;;;;;4934757;28;20246;-82
2023/11/30 04:45:38;;;;;;;18.17;13.57;;;;;;;;;;4917297;29;20238;-83
2023/11/30 04:48:06;;;;;;;16.70;13.90;;;;;;;;;;4923378;28;20222;-83
2023/11/30 04:50:35;;;;;;;15.43;13.43;;;;;;;;;;4909642;29;20222;-83
2023/11/30 04:53:00;;;;;;;15.03;13.10;;;;;;;;;;4923482;29;20237;-83
2023/11/30 04:55:28;;;;;;;15.33;13.57;;;;;;;;;;4924495;29;20234;-85
2023/11/30 04:57:54;;;;;;;18.10;14.13;;;;;;;;;;4932507;29;20770;-84
2023/11/30 05:00:19;;;;;;;18.13;14.50;;;;;;;;;;4927215;29;20246;-82
2023/11/30 05:02:55;;;;;;;18.00;14.77;;;;;;;;;;4934268;29;20211;-84
2023/11/30 05:05:21;;;;;;;15.50;13.83;;;;;;;;;;4933549;28;20226;-84
2023/11/30 05:07:46;;;;;;;15.77;13.67;;;;;;;;;;4938019;29;20215;-84
2023/11/30 05:10:14;;;;;;;14.67;13.13;;;;;;;;;;4954023;28;20219;-84
2023/11/30 05:12:40;;;;;;;15.27;13.67;;;;;;;;;;4935963;29;20265;-83
2023/11/30 05:15:10;;;;;;;16.63;14.07;;;;;;;;;;4935623;28;20233;-84
2023/11/30 05:17:38;;;;;;;16.23;14.53;;;;;;;;;;4938586;29;20737;-85
2023/11/30 05:20:07;;;;;;;14.17;12.67;;;;;;;;;;4933108;28;20219;-85
2023/11/30 05:22:32;;;;;;;13.67;12.23;;;;;;;;;;4919382;29;20245;-82
2023/11/30 05:24:58;;;;;;;16.10;13.70;;;;;;;;;;4953304;29;20223;-83
2023/11/30 05:27:28;;;;;;;15.03;13.53;;;;;;;;;;4934205;28;20221;-84
2023/11/30 05:29:58;;;;;;;17.00;13.67;;;;;;;;;;4918137;29;20226;-83
2023/11/30 05:32:26;;;;;;;15.77;13.77;;;;;;;;;;4937900;28;20313;-83
2023/11/30 05:34:54;;;;;;;15.57;13.53;;;;;;;;;;4921264;29;20224;-83
2023/11/30 05:37:20;;;;;;;14.77;13.23;;;;;;;;;;4922642;28;20207;-84
2023/11/30 05:39:45;;;;;;;17.90;14.07;;;;;;;;;;4913154;29;20324;-83
2023/11/30 05:42:15;;;;;;;21.27;14.33;;;;;;;;;;4933883;29;20269;-83
2023/11/30 05:44:45;;;;;;;16.33;13.67;;;;;;;;;;4917777;29;20586;-83
2023/11/30 05:47:14;;;;;;;19.50;14.53;;;;;;;;;;4922095;28;20310;-83
2023/11/30 05:49:40;;;;;;;16.10;14.30;;;;;;;;;;4909256;29;20298;-82
2023/11/30 05:52:07;;;;;;;16.93;15.13;;;;;;;;;;4938772;29;20238;-83
2023/11/30 05:54:35;;;;;;;17.27;13.77;;;;;;;;;;4956840;28;20283;-82
2023/11/30 05:57:01;;;;;;;16.27;14.60;;;;;;;;;;4958120;28;20271;-82
2023/11/30 05:59:26;;;;;;;16.97;14.83;;;;;;;;;;4960167;28;20266;-82
2023/11/30 06:01:59;;;;;;;16.47;14.20;;;;;;;;;;4939759;28;20203;-82
2023/11/30 06:04:27;;;;;;;16.10;14.40;;;;;;;;;;4959027;28;20216;-82
2023/11/30 06:06:55;;;;;;;15.07;13.13;;;;;;;;;;4942746;28;20220;-82
2023/11/30 06:09:21;;;;;;;18.37;14.57;;;;;;;;;;4940627;28;20215;-82
2023/11/30 06:11:51;;;;;;;19.33;15.40;;;;;;;;;;4940517;28;20207;-82
2023/11/30 06:14:16;;;;;;;16.70;14.63;;;;;;;;;;4954012;28;20211;-82
2023/11/30 06:16:44;;;;;;;16.13;14.43;;;;;;;;;;4941432;28;20195;-82
2023/11/30 06:19:15;;;;;;;19.20;14.43;;;;;;;;;;4937322;28;20254;-83
2023/11/30 06:21:45;;;;;;;16.67;13.60;;;;;;;;;;4952139;29;20226;-82
2023/11/30 06:24:14;;;;;;;18.97;14.70;;;;;;;;;;4934670;28;20281;-82
2023/11/30 06:26:42;;;;;;;16.73;14.20;;;;;;;;;;4937305;29;20206;-83
2023/11/30 06:29:13;;;;;;;16.67;14.97;;;;;;;;;;4945562;28;20230;-83
2023/11/30 06:31:43;;;;;;;15.97;14.33;;;;;;;;;;4934766;29;20226;-83
2023/11/30 06:34:13;;;;;;;16.70;15.03;;;;;;;;;;4932148;28;20258;-83
2023/11/30 06:36:38;;;;;;;19.20;14.93;;;;;;;;;;4939103;29;20231;-83
2023/11/30 06:39:07;;;;;;;21.90;15.37;;;;;;;;;;4944195;28;20726;-83
2023/11/30 06:41:37;;;;;;;16.60;14.80;;;;;;;;;;4929248;28;20234;-83
2023/11/30 06:44:03;;;;;;;16.50;14.77;;;;;;;;;;4925494;28;20225;-83
2023/11/30 06:46:31;;;;;;;16.87;14.60;;;;;;;;;;4942986;29;20259;-83
2023/11/30 06:48:56;;;;;;;16.90;14.47;;;;;;;;;;4944615;29;20305;-85
2023/11/30 06:51:25;;;;;;;18.97;14.70;;;;;;;;;;4936720;28;20225;-83
2023/11/30 06:53:53;;;;;;;17.00;15.20;;;;;;;;;;4943201;29;20211;-83
2023/11/30 06:56:20;;;;;;;19.87;14.53;;;;;;;;;;4927904;29;20219;-83
2023/11/30 06:58:51;;;;;;;15.63;14.10;;;;;;;;;;4937187;29;20291;-81
2023/11/30 07:01:16;;;;;;;18.00;15.27;;;;;;;;;;4949470;28;20221;-81
2023/11/30 07:03:43;;;;;;;15.77;14.03;;;;;;;;;;4948669;29;20230;-81
2023/11/30 07:06:12;;;;;;;15.97;14.30;;;;;;;;;;4950394;28;20250;-80
2023/11/30 07:08:37;;;;;;;15.40;13.93;;;;;;;;;;4950754;29;20227;-81
2023/11/30 07:11:07;;;;;;;16.00;14.30;;;;;;;;;;4910970;29;20234;-80
2023/11/30 07:13:32;;;;;;;16.53;14.73;;;;;;;;;;4946575;29;20218;-81
2023/11/30 07:15:58;;;;;;;16.27;13.97;;;;;;;;;;4935413;29;20222;-81
2023/11/30 07:18:26;;;;;;;17.17;14.63;;;;;;;;;;4881631;29;20765;-81
2023/11/30 07:20:51;;;;;;;18.40;15.10;;;;;;;;;;4938177;29;20681;-80
2023/11/30 07:23:22;;;;;;;17.47;14.70;;;;;;;;;;4934278;28;20273;-80
2023/11/30 07:25:48;;;;;;;17.87;14.83;;;;;;;;;;4920872;29;20307;-80
2023/11/30 07:28:14;;;;;;;16.23;14.53;;;;;;;;;;4915716;28;20233;-81
2023/11/30 07:30:42;;;;;;;17.63;14.57;;;;;;;;;;4931253;29;20231;-81
2023/11/30 07:33:10;;;;;;;15.97;13.87;;;;;;;;;;4944024;28;20229;-81
2023/11/30 07:35:37;;;;;;;15.97;14.37;;;;;;;;;;4933636;29;20238;-81
2023/11/30 07:38:03;;;;;;;22.10;15.30;;;;;;;;;;4935584;29;20219;-79
2023/11/30 07:40:34;;;;;;;17.33;14.97;;;;;;;;;;4934090;29;20234;-81
2023/11/30 07:43:00;;;;;;;18.33;16.00;;;;;;;;;;4933562;29;20224;-80
2023/11/30 07:45:28;;;;;;;21.57;15.57;;;;;;;;;;4937677;28;20373;-80
2023/11/30 07:47:54;;;;;;;19.57;15.87;;;;;;;;;;4936268;29;20223;-80
2023/11/30 07:50:20;;;;;;;18.53;15.97;;;;;;;;;;4943502;29;20684;-80
2023/11/30 07:52:45;;;;;;;17.37;15.53;;;;;;;;;;4932746;29;20224;-80
2023/11/30 07:55:11;;;;;;;17.60;15.70;;;;;;;;;;4903574;28;20638;-80
2023/11/30 07:57:37;;;;;;;17.63;15.83;;;;;;;;;;4934186;28;20285;-80
2023/11/30 08:00:07;;;;;;;16.40;14.77;;;;;;;;;;4947528;29;20224;-84
2023/11/30 08:02:36;;;;;;;15.63;13.90;;;;;;;;;;4920784;29;20211;-83
2023/11/30 08:05:04;;;;;;;16.37;14.73;;;;;;;;;;4935249;29;20931;-83
2023/11/30 08:07:32;;;;;;;16.73;14.87;;;;;;;;;;4965730;28;20658;-83
2023/11/30 08:09:58;;;;;;;16.93;15.23;;;;;;;;;;4921127;29;20218;-82
2023/11/30 08:12:23;;;;;;;17.23;14.90;;;;;;;;;;4952918;28;20238;-83
2023/11/30 08:14:49;;;;;;;17.40;15.53;;;;;;;;;;4935934;29;20219;-83
2023/11/30 08:17:15;;;;;;;15.87;14.37;;;;;;;;;;4920944;28;20219;-83
2023/11/30 08:19:43;;;;;;;17.70;14.40;;;;;;;;;;4918786;29;20214;-83
2023/11/30 08:22:09;;;;;;;16.40;14.77;;;;;;;;;;4922741;28;20239;-84
2023/11/30 08:24:36;;;;;;;15.87;14.27;;;;;;;;;;4918767;29;20263;-83
2023/11/30 08:27:06;;;;;;;15.50;14.00;;;;;;;;;;4935384;28;20235;-83
2023/11/30 08:29:36;;;;;;;15.17;13.77;;;;;;;;;;4942998;29;20229;-83
2023/11/30 08:32:02;;;;;;;16.07;14.57;;;;;;;;;;4940605;28;20223;-83
2023/11/30 08:34:28;;;;;;;15.70;14.17;;;;;;;;;;4945278;29;20222;-84
2023/11/30 08:36:53;;;;;;;15.27;13.87;;;;;;;;;;4946915;29;20226;-83
2023/11/30 08:39:23;;;;;;;15.10;13.50;;;;;;;;;;4946262;28;20286;-83
2023/11/30 08:41:53;;;;;;;15.07;13.67;;;;;;;;;;4944538;29;20310;-83
2023/11/30 08:44:18;;;;;;;15.20;13.70;;;;;;;;;;4920826;28;20824;-83
2023/11/30 08:46:44;;;;;;;24.90;22.43;;;;;;;;;;4937941;29;20238;-83
2023/11/30 08:49:11;;;;;;;23.97;21.40;;;;;;;;;;4931118;28;20226;-83
2023/11/30 08:51:39;;;;;;;39.33;35.63;;;;;;;;;;4943518;29;20238;-81
2023/11/30 08:54:05;;;;;;;18.13;16.07;;;;;;;;;;4933541;28;20242;-81
2023/11/30 08:56:32;;;;;;;14.83;13.50;;;;;;;;;;4944797;29;20230;-83
2023/11/30 08:58:58;;;;;;;14.43;13.07;;;;;;;;;;4945472;29;20310;-83
2023/11/30 09:01:27;;;;;;;13.80;12.53;;;;;;;;;;4935153;29;20230;-83
2023/11/30 09:03:54;;;;;;;14.50;13.13;;;;;;;;;;4928240;29;20251;-83
2023/11/30 09:06:23;;;;;;;14.27;12.97;;;;;;;;;;4945056;28;20229;-83
2023/11/30 09:08:49;;;;;;;15.30;13.80;;;;;;;;;;4938597;28;20219;-83
2023/11/30 09:11:14;;;;;;;18.30;16.57;;;;;;;;;;4924923;28;20231;-82
2023/11/30 09:13:42;;;;;;;16.20;12.70;;;;;;;;;;4917166;29;20242;-83
2023/11/30 09:16:10;;;;;;;14.83;13.53;;;;;;;;;;4924651;28;20221;-83
2023/11/30 09:18:38;;;;;;;15.23;13.83;;;;;;;;;;4955797;29;20219;-83
2023/11/30 09:21:06;;;;;;;14.87;13.40;;;;;;;;;;4925616;28;20226;-82
2023/11/30 09:23:36;;;;;;;14.47;12.97;;;;;;;;;;4924821;29;20230;-83
2023/11/30 09:26:06;;;;;;;14.53;13.10;;;;;;;;;;4925167;29;20234;-84
2023/11/30 09:28:37;;;;;;;14.57;13.17;;;;;;;;;;4921640;29;20236;-83
2023/11/30 09:31:03;;;;;;;15.17;13.67;;;;;;;;;;4939916;29;20709;-83
2023/11/30 09:33:31;;;;;;;16.83;13.50;;;;;;;;;;4921349;29;21314;-83
2023/11/30 09:35:57;;;;;;;14.53;13.03;;;;;;;;;;4925774;29;20253;-83
2023/11/30 09:38:23;;;;;;;14.63;13.13;;;;;;;;;;4924334;28;20712;-81
2023/11/30 09:40:53;;;;;;;14.47;12.97;;;;;;;;;;4939252;29;20237;-82
2023/11/30 09:43:19;;;;;;;14.77;13.47;;;;;;;;;;4923606;28;20230;-81
2023/11/30 09:45:47;;;;;;;14.80;13.33;;;;;;;;;;4911249;29;20293;-81
2023/11/30 09:48:15;;;;;;;15.13;13.20;;;;;;;;;;4923529;28;20222;-81
2023/11/30 09:50:43;;;;;;;15.27;13.77;;;;;;;;;;4920041;29;20285;-81
2023/11/30 09:53:08;;;;;;;14.70;13.20;;;;;;;;;;4904724;28;20214;-82
2023/11/30 09:55:34;;;;;;;15.03;13.00;;;;;;;;;;4925560;28;20750;-81
2023/11/30 09:58:00;;;;;;;14.43;12.93;;;;;;;;;;4936230;29;20286;-81
2023/11/30 10:00:30;;;;;;;15.13;13.67;;;;;;;;;;4941716;28;20214;-81
2023/11/30 10:02:59;;;;;;;14.13;12.80;;;;;;;;;;4940177;29;20225;-82
2023/11/30 10:05:26;;;;;;;14.43;13.03;;;;;;;;;;4939038;28;20235;-81
2023/11/30 10:07:52;;;;;;;14.07;12.73;;;;;;;;;;4934625;29;20305;-82
2023/11/30 10:10:17;;;;;;;15.50;13.90;;;;;;;;;;4925052;28;20214;-82
2023/11/30 10:12:43;;;;;;;14.37;12.87;;;;;;;;;;4925372;29;20219;-82
2023/11/30 10:15:09;;;;;;;13.83;12.53;;;;;;;;;;4925318;28;20876;-82
2023/11/30 10:17:38;;;;;;;14.07;12.77;;;;;;;;;;4960158;28;20241;-81
2023/11/30 10:20:11;;;;;;;16.20;14.60;;;;;;;;;;4922070;28;20223;-81
2023/11/30 10:22:40;;;;;;;28.63;25.47;;;;;;;;;;4939453;29;20226;-81
2023/11/30 10:25:08;;;;;;;15.97;14.37;;;;;;;;;;4908229;28;20251;-81
2023/11/30 10:27:40;;;;;;;12.17;11.07;;;;;;;;;;4908911;29;20261;-82
2023/11/30 10:30:10;;;;;;;11.50;10.47;;;;;;;;;;4966878;28;20255;-82
2023/11/30 10:32:39;;;;;;;11.60;10.07;;;;;;;;;;4942502;28;20239;-81
2023/11/30 10:35:08;;;;;;;10.30;9.30;;;;;;;;;;4954668;28;20231;-82
2023/11/30 10:37:44;;;;;;;9.70;8.80;;;;;;;;;;4925960;29;20313;-82
2023/11/30 10:40:12;;;;;;;10.07;9.17;;;;;;;;;;4957406;28;20266;-82
2023/11/30 10:42:39;;;;;;;10.10;8.87;;;;;;;;;;4938126;28;20234;-83
2023/11/30 10:45:06;;;;;;;9.80;8.83;;;;;;;;;;4923552;28;20223;-82
2023/11/30 10:47:34;;;;;;;9.63;8.70;;;;;;;;;;4941833;29;20615;-82
2023/11/30 10:50:05;;;;;;;11.17;10.17;;;;;;;;;;4939839;29;20206;-82
2023/11/30 10:52:34;;;;;;;10.60;9.63;;;;;;;;;;4939131;29;20975;-82
2023/11/30 10:55:11;;;;;;;11.33;10.33;;;;;;;;;;4935326;28;20512;-82
2023/11/30 10:57:43;;;;;;;10.37;9.37;;;;;;;;;;4905386;29;20226;-83
2023/11/30 11:00:15;;;;;;;9.87;8.97;;;;;;;;;;4920595;28;20237;-83
2023/11/30 11:02:43;;;;;;;9.67;8.80;;;;;;;;;;4953661;28;20226;-82
2023/11/30 11:05:14;;;;;;;11.43;10.23;;;;;;;;;;4936084;28;20231;-82
2023/11/30 11:07:46;;;;;;;10.13;9.13;;;;;;;;;;4927700;29;20248;-82
2023/11/30 11:10:35;;;;;;;10.03;9.03;;;;;;;;;;4925631;28;20218;-82
2023/11/30 11:13:03;;;;;;;8.37;7.67;;;;;;;;;;4928189;29;20222;-82
2023/11/30 11:15:31;;;;;;;9.07;8.07;;;;;;;;;;4905106;29;20231;-83
2023/11/30 11:18:03;;;;;;;8.37;7.57;;;;;;;;;;4924353;29;20740;-83
2023/11/30 11:20:32;;;;;;;8.60;7.70;;;;;;;;;;4934639;29;20214;-83
2023/11/30 11:23:19;;;;;;;8.90;7.90;;;;;;;;;;4934333;29;20231;-84
2023/11/30 11:25:45;;;;;;;9.70;7.50;;;;;;;;;;4965249;28;20238;-83
2023/11/30 11:28:13;;;;;;;7.93;7.23;;;;;;;;;;4933313;28;20217;-83
2023/11/30 11:30:49;;;;;;;8.00;7.23;;;;;;;;;;4933746;29;20250;-83
2023/11/30 11:33:18;;;;;;;8.80;7.80;;;;;;;;;;4960106;28;20222;-83
2023/11/30 11:35:43;;;;;;;8.23;7.43;;;;;;;;;;4931724;29;20239;-83
2023/11/30 11:38:09;;;;;;;8.80;7.90;;;;;;;;;;4944848;28;20334;-82
2023/11/30 11:40:38;;;;;;;8.37;7.67;;;;;;;;;;4949964;29;20231;-83
2023/11/30 11:43:04;;;;;;;8.57;7.67;;;;;;;;;;4916159;28;20223;-83
2023/11/30 11:45:30;;;;;;;8.93;8.00;;;;;;;;;;4932306;29;20237;-83
2023/11/30 11:47:55;;;;;;;7.43;6.83;;;;;;;;;;4933095;29;20244;-83
2023/11/30 11:50:21;;;;;;;8.40;7.60;;;;;;;;;;4946373;28;20623;-82
2023/11/30 11:52:48;;;;;;;9.17;8.33;;;;;;;;;;4929304;29;20231;-81
2023/11/30 11:55:16;;;;;;;9.43;8.50;;;;;;;;;;4927841;28;20230;-83
2023/11/30 11:57:43;;;;;;;8.20;7.50;;;;;;;;;;4928622;29;20231;-83
2023/11/30 12:00:10;;;;;;;8.73;7.93;;;;;;;;;;4927324;29;20320;-83
2023/11/30 12:02:36;;;;;;;15.53;14.00;;;;;;;;;;4934849;29;20231;-82
2023/11/30 12:05:11;;;;;;;9.47;8.57;;;;;;;;;;4943397;29;20735;-83
2023/11/30 12:07:49;;;;;;;9.07;8.20;;;;;;;;;;4973726;28;20287;-83
2023/11/30 12:10:31;;;;;;;8.27;7.57;;;;;;;;;;4948138;28;20238;-83
2023/11/30 12:12:58;;;;;;;9.57;8.00;;;;;;;;;;4956623;29;20229;-82
2023/11/30 12:15:26;;;;;;;10.10;9.10;;;;;;;;;;4927662;29;20239;-82
2023/11/30 12:17:52;;;;;;;8.10;7.30;;;;;;;;;;4928655;29;20246;-83
2023/11/30 12:20:18;;;;;;;8.57;7.83;;;;;;;;;;4957447;28;20272;-83
2023/11/30 12:22:47;;;;;;;8.37;7.47;;;;;;;;;;4925663;29;20241;-83
2023/11/30 12:25:13;;;;;;;8.27;7.57;;;;;;;;;;4929020;28;20238;-83
2023/11/30 12:27:38;;;;;;;8.40;7.60;;;;;;;;;;4915665;29;20235;-83
2023/11/30 12:30:07;;;;;;;8.20;7.50;;;;;;;;;;4928853;28;20238;-82
2023/11/30 12:32:37;;;;;;;10.10;8.03;;;;;;;;;;4930018;29;20290;-83
2023/11/30 12:35:06;;;;;;;8.00;7.20;;;;;;;;;;4943937;28;20304;-83
2023/11/30 12:37:32;;;;;;;8.87;8.00;;;;;;;;;;4929267;29;20219;-83
2023/11/30 12:40:00;;;;;;;8.63;7.73;;;;;;;;;;4929992;29;20295;-83
2023/11/30 12:42:28;;;;;;;9.37;7.80;;;;;;;;;;4917600;29;20223;-83
2023/11/30 12:44:54;;;;;;;11.00;10.00;;;;;;;;;;4944425;29;20242;-82
2023/11/30 12:47:25;;;;;;;9.27;8.37;;;;;;;;;;4945991;28;20226;-83
2023/11/30 12:49:51;;;;;;;11.60;8.53;;;;;;;;;;4946362;28;20231;-82
2023/11/30 12:52:16;;;;;;;8.90;8.00;;;;;;;;;;4947585;28;20239;-84
2023/11/30 12:54:42;;;;;;;10.57;9.60;;;;;;;;;;4948600;29;20238;-84
2023/11/30 12:57:08;;;;;;;8.87;8.10;;;;;;;;;;4916021;28;20218;-84
2023/11/30 12:59:34;;;;;;;8.50;7.80;;;;;;;;;;4931715;29;20226;-83
2023/11/30 13:02:01;;;;;;;9.27;7.77;;;;;;;;;;4942513;29;20231;-83
2023/11/30 13:04:31;;;;;;;8.90;8.10;;;;;;;;;;4930513;28;20269;-83
2023/11/30 13:07:00;;;;;;;10.30;7.87;;;;;;;;;;4915035;29;20227;-82
2023/11/30 13:09:26;;;;;;;8.17;7.37;;;;;;;;;;4921172;28;20290;-83
2023/11/30 13:11:54;;;;;;;7.80;7.10;;;;;;;;;;4939577;29;20278;-83
2023/11/30 13:14:22;;;;;;;7.53;6.83;;;;;;;;;;4924702;28;20230;-84
2023/11/30 13:16:48;;;;;;;7.70;7.00;;;;;;;;;;4928220;29;20230;-82
2023/11/30 13:19:14;;;;;;;7.70;7.10;;;;;;;;;;4955892;28;20282;-82
2023/11/30 13:21:41;;;;;;;8.20;7.40;;;;;;;;;;4926124;29;20226;-82
2023/11/30 13:24:07;;;;;;;9.17;8.03;;;;;;;;;;4936402;29;20258;-82
2023/11/30 13:26:33;;;;;;;8.33;7.47;;;;;;;;;;4924347;29;20222;-82
2023/11/30 13:28:58;;;;;;;7.97;7.33;;;;;;;;;;4921898;29;20219;-82
2023/11/30 13:31:25;;;;;;;8.40;7.57;;;;;;;;;;4922661;28;20673;-82
2023/11/30 13:33:53;;;;;;;9.18;8.38;;;;;;;;;;4940332;28;20435;-80
2023/11/30 13:36:18;;;;;;;8.83;8.03;;;;;;;;;;4917788;28;21015;-81
2023/11/30 13:38:44;;;;;;;9.70;8.73;;;;;;;;;;4931796;29;20565;-82
2023/11/30 13:41:10;;;;;;;8.20;7.50;;;;;;;;;;4932247;28;20219;-83
2023/11/30 13:43:38;;;;;;;8.60;7.80;;;;;;;;;;4934450;29;20235;-82
2023/11/30 13:46:05;;;;;;;9.57;8.77;;;;;;;;;;4939004;29;20239;-82
2023/11/30 13:48:31;;;;;;;15.23;13.80;;;;;;;;;;4949381;29;20234;-82
2023/11/30 13:50:57;;;;;;;10.23;9.33;;;;;;;;;;4946624;29;20223;-82
2023/11/30 13:53:26;;;;;;;8.93;8.13;;;;;;;;;;4925800;28;20222;-81
2023/11/30 13:55:56;;;;;;;10.87;8.20;;;;;;;;;;4943623;29;20235;-81
2023/11/30 13:58:27;;;;;;;8.77;7.87;;;;;;;;;;4956060;28;20222;-81
2023/11/30 14:00:52;;;;;;;8.90;8.10;;;;;;;;;;4939357;28;20251;-81
2023/11/30 14:03:18;;;;;;;11.53;10.53;;;;;;;;;;4942713;28;20270;-81
2023/11/30 14:05:46;;;;;;;8.57;7.83;;;;;;;;;;4959046;28;20554;-81
2023/11/30 14:08:11;;;;;;;8.73;8.03;;;;;;;;;;4953270;28;20226;-81
2023/11/30 14:10:39;;;;;;;8.77;7.97;;;;;;;;;;4938567;28;20209;-81
2023/11/30 14:13:07;;;;;;;8.13;7.43;;;;;;;;;;4972373;28;20222;-81
2023/11/30 14:15:33;;;;;;;8.10;7.30;;;;;;;;;;4972167;28;20302;-82
2023/11/30 14:17:59;;;;;;;9.73;8.73;;;;;;;;;;4938257;29;20211;-82
2023/11/30 14:20:28;;;;;;;9.20;8.30;;;;;;;;;;4933110;29;20290;-82
2023/11/30 14:22:53;;;;;;;8.43;7.67;;;;;;;;;;4925184;28;20327;-83
2023/11/30 14:25:21;;;;;;;9.37;8.27;;;;;;;;;;4950600;28;20258;-82
2023/11/30 14:27:47;;;;;;;8.63;7.73;;;;;;;;;;4935024;29;20230;-81
2023/11/30 14:30:13;;;;;;;8.10;7.30;;;;;;;;;;4904258;28;20223;-81